Time;durP1;ratioP1;P1;durP2;ratioP2;P2;SDS_P1;SDS_P2;PMS_P1;PMS_P2;Temp;Humidity;BMP_temperature;BMP_pressure;BME280_temperature;BME280_humidity;BME280_pressure;Samples;Min_cycle;Max_cycle;Signal;HPM_P1;HPM_P2
2023/12/04 00:00:56;;;;;;;32.80;23.10;;;;;;;;;;103406;1298;545695;-73
2023/12/04 00:04:34;;;;;;;32.10;19.30;;;;;;;;;;103615;1291;545217;-73
2023/12/04 00:08:11;;;;;;;30.40;18.80;;;;;;;;;;103766;1290;545708;-73
2023/12/04 00:11:49;;;;;;;33.10;19.10;;;;;;;;;;103529;1298;544784;-73
2023/12/04 00:15:26;;;;;;;29.80;19.10;;;;;;;;;;103757;1290;545021;-73
2023/12/04 00:19:03;;;;;;;26.40;17.10;;;;;;;;;;103751;1290;545004;-73
2023/12/04 00:22:41;;;;;;;28.20;18.20;;;;;;;;;;103986;1288;544808;-72
2023/12/04 00:26:18;;;;;;;33.30;21.50;;;;;;;;;;103555;1297;544755;-74
2023/12/04 00:29:56;;;;;;;33.70;20.70;;;;;;;;;;103779;1292;545878;-73
2023/12/04 00:33:54;;;;;;;31.70;18.60;;;;;;;;;;103850;1289;544715;-72
2023/12/04 00:37:38;;;;;;;26.40;15.80;;;;;;;;;;103637;1291;547768;-74
2023/12/04 00:40:48;;;;;;;30.00;19.20;;;;;;;;;;103492;1298;545282;-72
2023/12/04 00:44:49;;;;;;;27.50;17.00;;;;;;;;;;103820;1289;545978;-72
2023/12/04 00:48:04;;;;;;;33.70;20.70;;;;;;;;;;104169;1285;545033;-73
2023/12/04 00:51:44;;;;;;;32.90;20.60;;;;;;;;;;103811;1289;544838;-72
2023/12/04 00:55:19;;;;;;;35.90;20.40;;;;;;;;;;103801;1288;545064;-72
2023/12/04 00:59:00;;;;;;;38.30;21.80;;;;;;;;;;103953;1291;545066;-72
2023/12/04 01:02:33;;;;;;;37.50;22.80;;;;;;;;;;103696;1293;546684;-71
2023/12/04 01:06:20;;;;;;;41.70;24.20;;;;;;;;;;103768;1289;544841;-73
2023/12/04 01:09:48;;;;;;;36.20;21.40;;;;;;;;;;103953;1292;545451;-72
2023/12/04 01:13:25;;;;;;;39.70;23.90;;;;;;;;;;103928;1289;544828;-72
2023/12/04 01:17:03;;;;;;;42.10;25.70;;;;;;;;;;103968;1289;545062;-72
2023/12/04 01:20:46;;;;;;;47.40;28.00;;;;;;;;;;103716;1289;547990;-72
2023/12/04 01:24:23;;;;;;;48.20;27.80;;;;;;;;;;103803;1292;545385;-72
2023/12/04 01:27:59;;;;;;;45.20;26.50;;;;;;;;;;103759;1291;544770;-72
2023/12/04 01:31:33;;;;;;;52.60;31.70;;;;;;;;;;103902;1295;545327;-71
2023/12/04 01:35:10;;;;;;;42.60;25.20;;;;;;;;;;103730;1294;545051;-73
2023/12/04 01:38:48;;;;;;;55.10;33.50;;;;;;;;;;103781;1292;544838;-72
2023/12/04 01:42:28;;;;;;;62.60;36.10;;;;;;;;;;103648;1292;545152;-75
2023/12/04 01:46:03;;;;;;;61.00;35.70;;;;;;;;;;103752;1291;544802;-71
2023/12/04 01:49:40;;;;;;;61.10;35.10;;;;;;;;;;103824;1295;545012;-72
2023/12/04 01:53:18;;;;;;;59.90;34.20;;;;;;;;;;103920;1292;544909;-71
2023/12/04 01:56:55;;;;;;;58.60;31.60;;;;;;;;;;103817;1295;545610;-73
2023/12/04 02:00:33;;;;;;;56.90;34.20;;;;;;;;;;104506;1283;545641;-72
2023/12/04 02:04:11;;;;;;;60.80;34.70;;;;;;;;;;103734;1290;545035;-73
2023/12/04 02:07:50;;;;;;;61.10;34.00;;;;;;;;;;103785;1300;545046;-72
2023/12/04 02:11:25;;;;;;;63.70;37.00;;;;;;;;;;103689;1290;544916;-71
2023/12/04 02:15:02;;;;;;;64.10;38.50;;;;;;;;;;103844;1289;545673;-72
2023/12/04 02:18:40;;;;;;;59.00;34.60;;;;;;;;;;103611;1294;544819;-72
2023/12/04 02:22:19;;;;;;;56.90;35.50;;;;;;;;;;103808;1291;545198;-71
2023/12/04 02:25:58;;;;;;;58.60;35.10;;;;;;;;;;103851;1291;545504;-71
2023/12/04 02:29:38;;;;;;;53.00;32.70;;;;;;;;;;103745;1290;544740;-73
2023/12/04 02:33:21;;;;;;;;;;;;;;;;;;;;;
2023/12/04 02:36:48;;;;;;;53.80;33.80;;;;;;;;;;103750;1301;544811;-71
2023/12/04 02:40:25;;;;;;;50.10;31.40;;;;;;;;;;103811;1289;546951;-73
2023/12/04 02:44:02;;;;;;;53.80;32.60;;;;;;;;;;103865;1289;545667;-73
2023/12/04 02:47:40;;;;;;;56.90;32.10;;;;;;;;;;103844;1292;544866;-72
2023/12/04 02:51:17;;;;;;;61.50;33.40;;;;;;;;;;103744;1290;546044;-72
2023/12/04 02:54:54;;;;;;;54.30;30.40;;;;;;;;;;103774;1291;544791;-72
2023/12/04 02:58:48;;;;;;;;;;;;;;;;;;;;;
2023/12/04 03:02:10;;;;;;;58.30;30.40;;;;;;;;;;103757;1289;544900;-72
2023/12/04 03:05:47;;;;;;;54.70;29.40;;;;;;;;;;103482;1298;545515;-72
2023/12/04 03:09:27;;;;;;;43.50;26.20;;;;;;;;;;103761;1291;545029;-73
2023/12/04 03:13:02;;;;;;;47.50;29.00;;;;;;;;;;103893;1290;544784;-72
2023/12/04 03:16:39;;;;;;;50.30;28.90;;;;;;;;;;103767;1289;544754;-74
2023/12/04 03:20:17;;;;;;;50.30;27.50;;;;;;;;;;103870;1289;545571;-71
2023/12/04 03:23:55;;;;;;;61.00;33.70;;;;;;;;;;103764;1302;545648;-71
2023/12/04 03:27:31;;;;;;;56.60;32.20;;;;;;;;;;103802;1292;545036;-72
2023/12/04 03:31:09;;;;;;;52.20;28.80;;;;;;;;;;103832;1292;545354;-71
2023/12/04 03:34:47;;;;;;;45.30;26.60;;;;;;;;;;103649;1306;544766;-72
2023/12/04 03:38:24;;;;;;;51.90;31.00;;;;;;;;;;104061;1288;545059;-71
2023/12/04 03:42:04;;;;;;;51.10;29.40;;;;;;;;;;103732;1291;544955;-72
2023/12/04 03:45:39;;;;;;;54.20;29.10;;;;;;;;;;103793;1289;545399;-72
2023/12/04 03:49:16;;;;;;;54.60;30.70;;;;;;;;;;104558;1286;544850;-72
2023/12/04 03:52:54;;;;;;;53.30;29.70;;;;;;;;;;103730;1292;545065;-72
2023/12/04 03:56:31;;;;;;;52.90;29.40;;;;;;;;;;104066;1288;546246;-71
2023/12/04 04:00:15;;;;;;;48.70;30.40;;;;;;;;;;103426;1296;546360;-72
2023/12/04 04:03:46;;;;;;;48.30;28.10;;;;;;;;;;103786;1291;545585;-72
2023/12/04 04:07:24;;;;;;;46.70;27.10;;;;;;;;;;103777;1289;544944;-72
2023/12/04 04:11:01;;;;;;;48.60;29.40;;;;;;;;;;103544;1295;545069;-73
2023/12/04 04:14:44;;;;;;;54.70;31.20;;;;;;;;;;103652;1289;545881;-73
2023/12/04 04:18:16;;;;;;;50.20;28.20;;;;;;;;;;103841;1289;544986;-72
2023/12/04 04:22:02;;;;;;;50.10;29.60;;;;;;;;;;103642;1291;546650;-72
2023/12/04 04:25:31;;;;;;;56.50;31.90;;;;;;;;;;103815;1292;544945;-71
2023/12/04 04:29:09;;;;;;;52.90;30.10;;;;;;;;;;103801;1290;545743;-72
2023/12/04 04:32:46;;;;;;;53.50;30.80;;;;;;;;;;103798;1292;546065;-73
2023/12/04 04:36:24;;;;;;;58.10;32.30;;;;;;;;;;103617;1295;545085;-72
2023/12/04 04:40:03;;;;;;;54.10;30.90;;;;;;;;;;103649;1289;547772;-74
2023/12/04 04:43:38;;;;;;;54.40;31.90;;;;;;;;;;104243;1285;544993;-72
2023/12/04 04:47:16;;;;;;;53.80;33.00;;;;;;;;;;103745;1289;544755;-72
2023/12/04 04:50:53;;;;;;;59.80;32.40;;;;;;;;;;103487;1294;545095;-72
2023/12/04 04:54:32;;;;;;;63.80;34.00;;;;;;;;;;103837;1290;545420;-72
2023/12/04 04:58:08;;;;;;;68.30;36.10;;;;;;;;;;103896;1289;545068;-75
2023/12/04 05:01:46;;;;;;;57.30;33.20;;;;;;;;;;103937;1292;545444;-72
2023/12/04 05:05:23;;;;;;;49.10;31.00;;;;;;;;;;103807;1289;544707;-75
2023/12/04 05:09:21;;;;;;;53.70;33.50;;;;;;;;;;103728;1291;545932;-71
2023/12/04 05:12:38;;;;;;;51.90;31.20;;;;;;;;;;103831;1289;544788;-72
2023/12/04 05:16:15;;;;;;;49.90;31.60;;;;;;;;;;103818;1291;545847;-72
2023/12/04 05:19:53;;;;;;;55.90;34.70;;;;;;;;;;103796;1289;544971;-72
2023/12/04 05:23:30;;;;;;;50.20;30.50;;;;;;;;;;103614;1294;544860;-73
2023/12/04 05:27:08;;;;;;;54.60;32.80;;;;;;;;;;104049;1289;545440;-71
2023/12/04 05:30:45;;;;;;;54.70;34.30;;;;;;;;;;104121;1291;545080;-72
2023/12/04 05:34:23;;;;;;;54.80;33.00;;;;;;;;;;103897;1289;544746;-72
2023/12/04 05:38:00;;;;;;;56.70;34.50;;;;;;;;;;103810;1291;545647;-71
2023/12/04 05:41:38;;;;;;;62.40;35.90;;;;;;;;;;103781;1290;544799;-73
2023/12/04 05:45:15;;;;;;;57.00;31.10;;;;;;;;;;103807;1291;545132;-74
2023/12/04 05:48:52;;;;;;;61.50;36.10;;;;;;;;;;104034;1292;545011;-72
2023/12/04 05:52:31;;;;;;;67.20;39.20;;;;;;;;;;104545;1285;545520;-72
2023/12/04 05:56:08;;;;;;;71.10;36.70;;;;;;;;;;103432;1294;544981;-75
2023/12/04 05:59:48;;;;;;;161.10;69.80;;;;;;;;;;103423;1297;545557;-73
2023/12/04 06:03:23;;;;;;;85.00;42.60;;;;;;;;;;104547;1286;544761;-71
2023/12/04 06:07:00;;;;;;;73.10;34.60;;;;;;;;;;103866;1289;545843;-72
2023/12/04 06:10:43;;;;;;;45.50;26.20;;;;;;;;;;103705;1295;547880;-75
2023/12/04 06:14:15;;;;;;;42.50;24.50;;;;;;;;;;103777;1292;544981;-74
2023/12/04 06:17:52;;;;;;;43.00;25.40;;;;;;;;;;103463;1293;545839;-77
2023/12/04 06:21:30;;;;;;;40.80;22.70;;;;;;;;;;103705;1291;545880;-72
2023/12/04 06:25:08;;;;;;;49.40;28.20;;;;;;;;;;103844;1295;545006;-75
2023/12/04 06:28:45;;;;;;;55.60;32.40;;;;;;;;;;103833;1293;545602;-75
2023/12/04 06:32:24;;;;;;;49.70;29.20;;;;;;;;;;103768;1289;545203;-72
2023/12/04 06:36:02;;;;;;;40.30;24.10;;;;;;;;;;103718;1289;544931;-72
2023/12/04 06:39:38;;;;;;;50.00;26.90;;;;;;;;;;103721;1295;544865;-73
2023/12/04 06:43:18;;;;;;;45.20;27.00;;;;;;;;;;103696;1295;544944;-74
2023/12/04 06:46:52;;;;;;;49.30;28.20;;;;;;;;;;103820;1290;545635;-75
2023/12/04 06:50:29;;;;;;;53.30;32.90;;;;;;;;;;103726;1293;545064;-73
2023/12/04 06:54:07;;;;;;;66.70;43.00;;;;;;;;;;103783;1290;545340;-72
2023/12/04 06:57:44;;;;;;;60.10;35.90;;;;;;;;;;103842;1292;545499;-76
2023/12/04 07:01:22;;;;;;;46.30;28.10;;;;;;;;;;104099;1290;545678;-72
2023/12/04 07:05:10;;;;;;;;;;;;;;;;;;;;;
2023/12/04 07:08:36;;;;;;;50.80;29.60;;;;;;;;;;104222;1286;545141;-75
2023/12/04 07:12:14;;;;;;;48.60;27.80;;;;;;;;;;103882;1289;546210;-75
2023/12/04 07:15:52;;;;;;;45.20;27.60;;;;;;;;;;103843;1288;545983;-73
2023/12/04 07:19:30;;;;;;;47.30;30.20;;;;;;;;;;103791;1295;544814;-73
2023/12/04 07:23:07;;;;;;;51.80;32.30;;;;;;;;;;103715;1292;545066;-73
2023/12/04 07:26:51;;;;;;;54.60;33.30;;;;;;;;;;103732;1290;548111;-72
2023/12/04 07:30:24;;;;;;;53.00;32.80;;;;;;;;;;103791;1296;545051;-75
2023/12/04 07:34:01;;;;;;;46.30;27.50;;;;;;;;;;103766;1290;545368;-72
2023/12/04 07:37:37;;;;;;;42.70;24.40;;;;;;;;;;103887;1290;545453;-72
2023/12/04 07:41:15;;;;;;;53.70;30.80;;;;;;;;;;103628;1293;544836;-72
2023/12/04 07:44:57;;;;;;;66.10;36.80;;;;;;;;;;103652;1293;546311;-74
2023/12/04 07:48:30;;;;;;;71.40;36.80;;;;;;;;;;103570;1301;545526;-73
2023/12/04 07:52:07;;;;;;;74.10;37.30;;;;;;;;;;103834;1294;545383;-75
2023/12/04 07:55:44;;;;;;;56.60;31.40;;;;;;;;;;103913;1289;545063;-73
2023/12/04 07:59:21;;;;;;;48.00;28.40;;;;;;;;;;103728;1289;545147;-73
2023/12/04 08:02:58;;;;;;;44.00;26.90;;;;;;;;;;103902;1288;545485;-73
2023/12/04 08:06:36;;;;;;;45.50;29.10;;;;;;;;;;103812;1296;544957;-75
2023/12/04 08:10:14;;;;;;;47.00;29.90;;;;;;;;;;103802;1292;544796;-73
2023/12/04 08:13:51;;;;;;;53.00;32.20;;;;;;;;;;103560;1295;544972;-73
2023/12/04 08:17:37;;;;;;;54.10;31.80;;;;;;;;;;103938;1299;549319;-73
2023/12/04 08:21:09;;;;;;;58.20;30.70;;;;;;;;;;103863;1289;544836;-72
2023/12/04 08:24:43;;;;;;;69.20;38.00;;;;;;;;;;103575;1295;544825;-73
2023/12/04 08:28:21;;;;;;;71.30;41.30;;;;;;;;;;104639;1283;544819;-73
2023/12/04 08:31:59;;;;;;;96.80;53.10;;;;;;;;;;103788;1291;544878;-74
2023/12/04 08:35:36;;;;;;;81.40;43.90;;;;;;;;;;103704;1304;545025;-72
2023/12/04 08:39:13;;;;;;;73.10;39.40;;;;;;;;;;103785;1292;545704;-72
2023/12/04 08:42:51;;;;;;;68.30;35.30;;;;;;;;;;103522;1294;545581;-72
2023/12/04 08:46:29;;;;;;;55.30;33.20;;;;;;;;;;103619;1294;545778;-71
2023/12/04 08:50:07;;;;;;;56.70;33.10;;;;;;;;;;103584;1297;545649;-71
2023/12/04 08:53:43;;;;;;;62.90;35.10;;;;;;;;;;103822;1295;545101;-73
2023/12/04 08:57:21;;;;;;;67.60;39.20;;;;;;;;;;104170;1285;545550;-72
2023/12/04 09:00:58;;;;;;;142.20;66.70;;;;;;;;;;103845;1292;544858;-73
2023/12/04 09:04:38;;;;;;;143.20;61.70;;;;;;;;;;103691;1295;544729;-73
2023/12/04 09:08:18;;;;;;;113.80;49.10;;;;;;;;;;103780;1296;548978;-71
2023/12/04 09:11:51;;;;;;;138.30;60.80;;;;;;;;;;103484;1297;544862;-72
2023/12/04 09:15:28;;;;;;;92.60;46.90;;;;;;;;;;103582;1298;545505;-72
2023/12/04 09:19:05;;;;;;;73.50;41.30;;;;;;;;;;103878;1290;546352;-72
2023/12/04 09:22:43;;;;;;;60.50;38.00;;;;;;;;;;103864;1289;544825;-71
2023/12/04 09:26:20;;;;;;;61.90;39.40;;;;;;;;;;103769;1292;544733;-73
2023/12/04 09:29:57;;;;;;;73.10;43.40;;;;;;;;;;103744;1294;545511;-73
2023/12/04 09:33:36;;;;;;;81.80;44.30;;;;;;;;;;103741;1289;544815;-73
2023/12/04 09:37:13;;;;;;;61.30;35.80;;;;;;;;;;103944;1289;545058;-72
2023/12/04 09:40:52;;;;;;;60.40;35.50;;;;;;;;;;103545;1298;545887;-72
2023/12/04 09:44:28;;;;;;;53.40;31.70;;;;;;;;;;103538;1297;545365;-73
2023/12/04 09:48:06;;;;;;;53.10;32.10;;;;;;;;;;103747;1291;544907;-74
2023/12/04 09:51:39;;;;;;;52.30;33.00;;;;;;;;;;104025;1289;545005;-72
2023/12/04 09:55:20;;;;;;;47.20;30.00;;;;;;;;;;103979;1291;545750;-72
2023/12/04 09:58:59;;;;;;;49.60;29.90;;;;;;;;;;104446;1286;544858;-73
2023/12/04 10:02:36;;;;;;;46.90;27.60;;;;;;;;;;103846;1293;545590;-74
2023/12/04 10:06:16;;;;;;;50.90;29.10;;;;;;;;;;103766;1290;545156;-72
2023/12/04 10:09:52;;;;;;;57.20;34.60;;;;;;;;;;103800;1288;544969;-74
2023/12/04 10:13:27;;;;;;;59.30;34.40;;;;;;;;;;103740;1291;544802;-74
2023/12/04 10:17:23;;;;;;;56.00;32.00;;;;;;;;;;103621;1292;545851;-76
2023/12/04 10:20:53;;;;;;;50.00;29.30;;;;;;;;;;103724;1292;545170;-73
2023/12/04 10:24:35;;;;;;;51.40;30.00;;;;;;;;;;103975;1301;545184;-74
2023/12/04 10:28:07;;;;;;;45.30;28.00;;;;;;;;;;103745;1295;545251;-73
2023/12/04 10:31:35;;;;;;;47.40;29.00;;;;;;;;;;103780;1291;545353;-74
2023/12/04 10:35:13;;;;;;;67.40;36.60;;;;;;;;;;103717;1293;545313;-75
2023/12/04 10:39:00;;;;;;;100.40;49.30;;;;;;;;;;103782;1292;544797;-74
2023/12/04 10:42:32;;;;;;;83.70;43.20;;;;;;;;;;103659;1292;546951;-75
2023/12/04 10:46:01;;;;;;;58.40;34.60;;;;;;;;;;104552;1282;544878;-77
2023/12/04 10:50:04;;;;;;;48.50;28.90;;;;;;;;;;103900;1295;549418;-80
2023/12/04 10:53:20;;;;;;;39.90;25.10;;;;;;;;;;104008;1288;545032;-78
2023/12/04 10:57:01;;;;;;;43.00;26.30;;;;;;;;;;103584;1294;545615;-75
2023/12/04 11:00:35;;;;;;;45.40;28.30;;;;;;;;;;104016;1288;545475;-75
2023/12/04 11:04:17;;;;;;;48.50;28.70;;;;;;;;;;103932;1292;546007;-75
2023/12/04 11:08:13;;;;;;;52.50;30.00;;;;;;;;;;103608;1295;545006;-77
2023/12/04 11:11:31;;;;;;;55.70;33.30;;;;;;;;;;103571;1294;544859;-74
2023/12/04 11:15:04;;;;;;;57.70;34.40;;;;;;;;;;103805;1292;544833;-76
2023/12/04 11:18:43;;;;;;;64.20;36.80;;;;;;;;;;103744;1292;545548;-75
2023/12/04 11:22:21;;;;;;;63.90;37.10;;;;;;;;;;103753;1289;545081;-77
2023/12/04 11:25:53;;;;;;;42.20;25.30;;;;;;;;;;103935;1290;545776;-75
2023/12/04 11:29:31;;;;;;;31.40;18.80;;;;;;;;;;103772;1292;544961;-76
2023/12/04 11:33:12;;;;;;;54.70;33.00;;;;;;;;;;104146;1288;544724;-77
2023/12/04 11:36:50;;;;;;;49.70;30.20;;;;;;;;;;103811;1292;545143;-74
2023/12/04 11:40:27;;;;;;;48.80;29.30;;;;;;;;;;103804;1291;545911;-75
2023/12/04 11:44:12;;;;;;;43.70;27.40;;;;;;;;;;103845;1289;546235;-78
2023/12/04 11:47:49;;;;;;;46.50;28.40;;;;;;;;;;103728;1295;545878;-74
2023/12/04 11:51:38;;;;;;;46.40;29.40;;;;;;;;;;103799;1291;544869;-76
2023/12/04 11:54:58;;;;;;;50.50;33.50;;;;;;;;;;103872;1291;544954;-77
2023/12/04 11:58:41;;;;;;;47.20;32.60;;;;;;;;;;103870;1291;544836;-78
2023/12/04 12:02:18;;;;;;;44.40;30.10;;;;;;;;;;103615;1295;547801;-75
2023/12/04 12:05:58;;;;;;;47.10;32.80;;;;;;;;;;103739;1289;545227;-76
2023/12/04 12:09:27;;;;;;;43.60;29.40;;;;;;;;;;103811;1289;544772;-75
2023/12/04 12:13:01;;;;;;;52.90;36.60;;;;;;;;;;103847;1293;545052;-76
2023/12/04 12:16:41;;;;;;;43.50;29.10;;;;;;;;;;103902;1289;544856;-75
2023/12/04 12:20:22;;;;;;;52.40;30.80;;;;;;;;;;104021;1289;544957;-76
2023/12/04 12:23:56;;;;;;;48.50;29.70;;;;;;;;;;103760;1292;545244;-76
2023/12/04 12:27:45;;;;;;;55.80;33.90;;;;;;;;;;103648;1293;548086;-76
2023/12/04 12:31:11;;;;;;;45.00;28.50;;;;;;;;;;103776;1292;545576;-77
2023/12/04 12:34:49;;;;;;;43.30;27.70;;;;;;;;;;103746;1290;545970;-76
2023/12/04 12:38:26;;;;;;;77.80;38.90;;;;;;;;;;103722;1292;544828;-76
2023/12/04 12:42:05;;;;;;;187.60;72.40;;;;;;;;;;103805;1289;544991;-76
2023/12/04 12:45:43;;;;;;;183.10;77.60;;;;;;;;;;103724;1290;544729;-76
2023/12/04 12:49:26;;;;;;;151.40;74.00;;;;;;;;;;103637;1292;548163;-80
2023/12/04 12:52:57;;;;;;;75.40;45.30;;;;;;;;;;103810;1294;544981;-77
2023/12/04 12:56:33;;;;;;;45.80;32.10;;;;;;;;;;103917;1288;544737;-78
2023/12/04 13:00:10;;;;;;;35.10;23.80;;;;;;;;;;103495;1295;544820;-77
2023/12/04 13:03:56;;;;;;;31.60;20.70;;;;;;;;;;103414;1294;547747;-81
2023/12/04 13:07:26;;;;;;;34.60;20.50;;;;;;;;;;103785;1289;545057;-77
2023/12/04 13:11:04;;;;;;;30.20;19.40;;;;;;;;;;103820;1295;544886;-76
2023/12/04 13:14:44;;;;;;;29.30;18.90;;;;;;;;;;103704;1292;545601;-77
2023/12/04 13:18:31;;;;;;;29.20;19.50;;;;;;;;;;103619;1294;544964;-79
2023/12/04 13:21:57;;;;;;;27.80;18.20;;;;;;;;;;103854;1295;545458;-76
2023/12/04 13:25:33;;;;;;;118.00;66.60;;;;;;;;;;103750;1290;544882;-76
2023/12/04 13:29:17;;;;;;;36.10;23.50;;;;;;;;;;103880;1292;548196;-78
2023/12/04 13:32:50;;;;;;;32.00;20.30;;;;;;;;;;103715;1292;545011;-78
2023/12/04 13:36:27;;;;;;;33.70;22.40;;;;;;;;;;104074;1288;544880;-77
2023/12/04 13:40:12;;;;;;;35.50;23.50;;;;;;;;;;104117;1286;548013;-76
2023/12/04 13:43:51;;;;;;;33.00;20.70;;;;;;;;;;103706;1292;548205;-79
2023/12/04 13:47:18;;;;;;;38.00;22.50;;;;;;;;;;103806;1291;544944;-77
2023/12/04 13:50:55;;;;;;;45.20;26.50;;;;;;;;;;104084;1286;544988;-76
2023/12/04 13:54:47;;;;;;;47.70;29.30;;;;;;;;;;103810;1289;544884;-77
2023/12/04 13:58:26;;;;;;;52.30;33.20;;;;;;;;;;103815;1292;544758;-78
2023/12/04 14:01:49;;;;;;;50.40;31.60;;;;;;;;;;103828;1291;545177;-77
2023/12/04 14:05:26;;;;;;;53.60;31.80;;;;;;;;;;104502;1283;545232;-76
2023/12/04 14:09:05;;;;;;;49.90;29.70;;;;;;;;;;103880;1288;544827;-76
2023/12/04 14:12:40;;;;;;;50.60;28.80;;;;;;;;;;103821;1294;545483;-76
2023/12/04 14:16:18;;;;;;;47.40;28.00;;;;;;;;;;103964;1290;545698;-76
2023/12/04 14:19:55;;;;;;;47.50;28.50;;;;;;;;;;103808;1290;544839;-77
2023/12/04 14:23:29;;;;;;;49.40;29.10;;;;;;;;;;103960;1293;544822;-78
2023/12/04 14:27:09;;;;;;;50.50;30.00;;;;;;;;;;103759;1290;545063;-75
2023/12/04 14:30:47;;;;;;;56.70;33.60;;;;;;;;;;103777;1291;545160;-75
2023/12/04 14:34:32;;;;;;;56.30;32.10;;;;;;;;;;103681;1292;544891;-76
2023/12/04 14:38:05;;;;;;;51.10;30.50;;;;;;;;;;103774;1290;545406;-75
2023/12/04 14:41:45;;;;;;;50.90;28.00;;;;;;;;;;103643;1291;549205;-74
2023/12/04 14:45:22;;;;;;;45.80;28.50;;;;;;;;;;104114;1285;545052;-74
2023/12/04 14:48:55;;;;;;;48.60;30.00;;;;;;;;;;103840;1288;544840;-76
2023/12/04 14:52:34;;;;;;;62.20;39.30;;;;;;;;;;105035;1297;545555;-75
2023/12/04 15:04:24;;;;;;;53.70;31.90;;;;;;;;;;103807;1292;545195;-75
2023/12/04 15:08:13;;;;;;;54.10;32.10;;;;;;;;;;103851;1295;544968;-74
2023/12/04 15:14:38;;;;;;;58.30;35.50;;;;;;;;;;103719;1292;545120;-75
2023/12/04 15:21:31;;;;;;;67.70;39.50;;;;;;;;;;103781;1291;545477;-74
2023/12/04 15:25:11;;;;;;;68.10;37.70;;;;;;;;;;103823;1290;545013;-76
2023/12/04 15:28:46;;;;;;;65.00;36.80;;;;;;;;;;103745;1289;545055;-74
2023/12/04 15:32:21;;;;;;;65.10;38.20;;;;;;;;;;103889;1291;544996;-74
2023/12/04 15:36:01;;;;;;;72.50;44.20;;;;;;;;;;103931;1289;544724;-75
2023/12/04 15:39:39;;;;;;;76.30;46.00;;;;;;;;;;103901;1289;544895;-73
2023/12/04 15:43:14;;;;;;;80.80;47.00;;;;;;;;;;103851;1289;545010;-74
2023/12/04 15:46:53;;;;;;;80.60;47.60;;;;;;;;;;103891;1289;545934;-74
2023/12/04 15:50:51;;;;;;;76.50;43.50;;;;;;;;;;103429;1298;548203;-74
2023/12/04 15:54:08;;;;;;;74.50;42.40;;;;;;;;;;103740;1289;544937;-75
2023/12/04 15:57:54;;;;;;;75.30;44.50;;;;;;;;;;103744;1292;546192;-73
2023/12/04 16:01:29;;;;;;;80.60;45.30;;;;;;;;;;103657;1295;547786;-74
2023/12/04 16:05:01;;;;;;;78.20;44.80;;;;;;;;;;103806;1290;544756;-74
2023/12/04 16:08:39;;;;;;;80.30;48.10;;;;;;;;;;103891;1289;545468;-73
2023/12/04 16:12:16;;;;;;;84.30;48.30;;;;;;;;;;104630;1289;546024;-72
2023/12/04 16:15:49;;;;;;;78.70;44.20;;;;;;;;;;103895;1293;544791;-74
2023/12/04 16:19:37;;;;;;;84.10;45.00;;;;;;;;;;103468;1295;548402;-73
2023/12/04 16:23:08;;;;;;;80.00;46.40;;;;;;;;;;103612;1293;544722;-74
2023/12/04 16:26:54;;;;;;;80.10;46.20;;;;;;;;;;103747;1291;549021;-73
2023/12/04 16:30:19;;;;;;;83.70;49.00;;;;;;;;;;103886;1288;544916;-73
2023/12/04 16:34:01;;;;;;;87.00;50.10;;;;;;;;;;103752;1292;545523;-73
2023/12/04 16:37:41;;;;;;;81.70;47.50;;;;;;;;;;103413;1295;545194;-73
2023/12/04 16:41:16;;;;;;;80.60;43.30;;;;;;;;;;104118;1292;545642;-73
2023/12/04 16:44:53;;;;;;;84.60;49.80;;;;;;;;;;103757;1289;545049;-74
2023/12/04 16:48:55;;;;;;;88.20;50.90;;;;;;;;;;103867;1289;545281;-73
2023/12/04 16:52:08;;;;;;;90.60;52.50;;;;;;;;;;103932;1292;545063;-72
2023/12/04 16:55:45;;;;;;;94.70;52.60;;;;;;;;;;103824;1289;544829;-74
2023/12/04 16:59:28;;;;;;;86.90;48.20;;;;;;;;;;104508;1294;544828;-72
2023/12/04 17:03:01;;;;;;;81.10;44.80;;;;;;;;;;103788;1291;545041;-73
2023/12/04 17:06:39;;;;;;;82.30;45.70;;;;;;;;;;104156;1285;545720;-73
2023/12/04 17:10:11;;;;;;;76.80;43.50;;;;;;;;;;103888;1291;545900;-73
2023/12/04 17:13:55;;;;;;;79.50;45.50;;;;;;;;;;103727;1292;545157;-72
2023/12/04 17:17:31;;;;;;;75.40;44.60;;;;;;;;;;103709;1292;545088;-72
2023/12/04 17:21:04;;;;;;;77.40;43.20;;;;;;;;;;103541;1298;545346;-74
2023/12/04 17:24:48;;;;;;;68.90;38.50;;;;;;;;;;103945;1289;547868;-72
2023/12/04 17:28:25;;;;;;;58.40;34.80;;;;;;;;;;103827;1290;546442;-74
2023/12/04 17:32:01;;;;;;;61.50;35.00;;;;;;;;;;103792;1289;545830;-74
2023/12/04 17:35:40;;;;;;;54.40;32.00;;;;;;;;;;103770;1291;545201;-72
2023/12/04 17:39:16;;;;;;;51.20;30.70;;;;;;;;;;104683;1286;544819;-73
2023/12/04 17:42:53;;;;;;;50.00;30.20;;;;;;;;;;103711;1293;545181;-73
2023/12/04 17:46:33;;;;;;;48.70;27.50;;;;;;;;;;104078;1287;544792;-73
2023/12/04 17:50:09;;;;;;;47.80;27.10;;;;;;;;;;103971;1294;545102;-72
2023/12/04 17:53:47;;;;;;;44.50;25.80;;;;;;;;;;103846;1292;545050;-73
2023/12/04 17:57:44;;;;;;;43.10;26.10;;;;;;;;;;103813;1294;546245;-75
2023/12/04 18:01:03;;;;;;;42.40;25.80;;;;;;;;;;103702;1292;545692;-73
2023/12/04 18:04:44;;;;;;;38.60;24.60;;;;;;;;;;103917;1288;544924;-74
2023/12/04 18:08:15;;;;;;;37.90;23.50;;;;;;;;;;103523;1297;545419;-72
2023/12/04 18:11:52;;;;;;;42.10;24.60;;;;;;;;;;103751;1292;544787;-72
2023/12/04 18:15:31;;;;;;;42.60;25.90;;;;;;;;;;103752;1290;544833;-73
2023/12/04 18:19:12;;;;;;;48.70;28.80;;;;;;;;;;103614;1295;546156;-72
2023/12/04 18:22:53;;;;;;;49.20;30.10;;;;;;;;;;103863;1289;547943;-73
2023/12/04 18:26:22;;;;;;;52.00;31.90;;;;;;;;;;104142;1288;545801;-73
2023/12/04 18:29:56;;;;;;;50.80;30.50;;;;;;;;;;103822;1292;544780;-73
2023/12/04 18:33:40;;;;;;;46.30;28.00;;;;;;;;;;103778;1289;545027;-73
2023/12/04 18:37:25;;;;;;;57.00;32.70;;;;;;;;;;103761;1291;548372;-73
2023/12/04 18:40:52;;;;;;;52.70;32.50;;;;;;;;;;103770;1290;544904;-72
2023/12/04 18:44:36;;;;;;;54.00;32.60;;;;;;;;;;103604;1291;547745;-73
2023/12/04 18:48:17;;;;;;;49.80;30.30;;;;;;;;;;103716;1298;548344;-73
2023/12/04 18:52:09;;;;;;;52.70;32.60;;;;;;;;;;103765;1292;546994;-76
2023/12/04 18:55:47;;;;;;;55.20;32.70;;;;;;;;;;103484;1297;548134;-74
2023/12/04 18:59:01;;;;;;;54.10;32.80;;;;;;;;;;103739;1291;545115;-73
2023/12/04 19:02:39;;;;;;;69.40;40.90;;;;;;;;;;103938;1292;544783;-72
2023/12/04 19:06:15;;;;;;;79.30;45.10;;;;;;;;;;103689;1292;545242;-73
2023/12/04 19:09:56;;;;;;;63.00;36.80;;;;;;;;;;103623;1296;550343;-73
2023/12/04 19:13:35;;;;;;;53.40;31.30;;;;;;;;;;103752;1290;545640;-74
2023/12/04 19:17:28;;;;;;;54.90;29.20;;;;;;;;;;103643;1311;547786;-73
2023/12/04 19:20:47;;;;;;;65.10;31.60;;;;;;;;;;104034;1288;544827;-73
2023/12/04 19:24:22;;;;;;;72.40;34.90;;;;;;;;;;103826;1290;545217;-73
2023/12/04 19:27:59;;;;;;;72.10;36.90;;;;;;;;;;103573;1298;544810;-73
2023/12/04 19:32:05;;;;;;;67.50;34.00;;;;;;;;;;103404;1294;547756;-74
2023/12/04 19:35:16;;;;;;;64.90;35.40;;;;;;;;;;103751;1293;545151;-72
2023/12/04 19:39:14;;;;;;;65.00;35.50;;;;;;;;;;103788;1295;548019;-74
2023/12/04 19:42:32;;;;;;;62.90;36.30;;;;;;;;;;103483;1294;544919;-73
2023/12/04 19:46:27;;;;;;;66.70;38.90;;;;;;;;;;103744;1292;547804;-72
2023/12/04 19:49:44;;;;;;;74.70;42.90;;;;;;;;;;103851;1289;544595;-73
2023/12/04 19:53:23;;;;;;;68.10;41.40;;;;;;;;;;103726;1292;545166;-73
2023/12/04 19:57:22;;;;;;;62.90;37.60;;;;;;;;;;103711;1291;545294;-73
2023/12/04 20:00:36;;;;;;;52.10;29.20;;;;;;;;;;103539;1297;545591;-74
2023/12/04 20:04:15;;;;;;;50.00;27.10;;;;;;;;;;104113;1289;545619;-73
2023/12/04 20:07:52;;;;;;;44.20;25.80;;;;;;;;;;103737;1289;544793;-73
2023/12/04 20:11:28;;;;;;;36.50;22.30;;;;;;;;;;103773;1291;544791;-73
2023/12/04 20:15:12;;;;;;;33.60;20.20;;;;;;;;;;103552;1297;548656;-73
2023/12/04 20:18:43;;;;;;;30.60;19.40;;;;;;;;;;103838;1290;544962;-73
2023/12/04 20:22:23;;;;;;;27.20;15.60;;;;;;;;;;103730;1292;545420;-74
2023/12/04 20:25:59;;;;;;;23.90;14.20;;;;;;;;;;104091;1292;545501;-73
2023/12/04 20:29:36;;;;;;;21.00;12.10;;;;;;;;;;104232;1289;546023;-73
2023/12/04 20:33:20;;;;;;;19.30;12.70;;;;;;;;;;103721;1291;544989;-73
2023/12/04 20:36:55;;;;;;;22.20;13.00;;;;;;;;;;103619;1292;545500;-73
2023/12/04 20:40:28;;;;;;;20.00;12.80;;;;;;;;;;103769;1292;545199;-73
2023/12/04 20:44:08;;;;;;;17.50;11.40;;;;;;;;;;103807;1289;545048;-73